• Join FlightAware (Why Join?)
  • Login
  • US Flag 
02:01AM EDT


 

Airport Tracker/Info


-or-


 

Live Flight TrackerFlight Track Log ✈ N105LU ✈ 22-Jul-2014 ✈ KLNA - KTMB

Flight Track Log - Related Links

Times and Time Zones

All times are in EDT time to prevent confusion due to time zone crossing. See the N105LU flight status page for this flight to view local times or setup timezone preferences in your user account.

Time Position Orientation Groundspeed Altitude Reporting Facility
EDT Latitude Longitude Course Direction KTS MPH feet Rate Location/Type
08:23PM 26.5406 -80.0497 185° South 109 125 1,600  Level Miami Center
08:23PM 26.5411 -80.0594 274° West 103 119 1,700 480 Climbing Miami Center
08:24PM 26.5442 -80.0806 279° West 99 114 2,100 540 Climbing Miami Center
08:25PM 26.5503 -80.1139 282° West 103 119 2,700 420 Climbing Miami Center
08:26PM 26.5542 -80.1453 278° West 103 119 3,000 240 Climbing Miami Center
08:26PM 26.5544 -80.1514 273° West 103 119 3,000  Level Miami Center
08:27PM 26.4222 -80.1484 193° South  Level Estimated
08:27PM 26.5553 -80.1831 272° West 118 136 3,000  Level Miami Center
08:28PM 26.3937 -80.1590 185° South  Level Estimated
08:28PM 26.5353 -80.2156 235° Southwest 121 139 3,000  Level Miami Center
08:29PM 26.5114 -80.2342 215° Southwest 116 133 3,000  Level Miami Center
08:30PM 26.4856 -80.2564 218° Southwest 109 125 3,000  Level Miami Center
08:30PM 26.4828 -80.2600 229° Southwest 107 123 3,000  Level Miami Center
08:31PM 26.4611 -80.2753 212° Southwest 109 125 3,000  Level Miami Center
08:31PM 26.4561 -80.2811 226° Southwest 107 123 3,000  Level Miami Center
08:32PM 26.4344 -80.2956 211° Southwest 107 123 3,000  Level Miami Center
08:33PM 26.4100 -80.3147 215° Southwest 115 132 3,000  Level Miami Center
08:34PM 26.3803 -80.3386 216° Southwest 120 138 3,000  Level Miami Center
08:35PM 26.3503 -80.3614 214° Southwest 121 139 3,000  Level Miami Center
08:36PM 26.3233 -80.3806 213° Southwest 117 135 3,000  Level Miami Center
08:37PM 26.2964 -80.3994 212° Southwest 117 135 3,000  Level Miami Center
08:38PM 26.2675 -80.4200 213° Southwest 120 138 3,000  Level Miami Center
08:39PM 26.2408 -80.4369 210° Southwest 120 138 3,000  Level Miami Center
08:39PM 26.2278 -80.4469 214° Southwest 119 137 3,000  Level Miami Center
08:40PM 26.2039 -80.4614 208° Southwest 120 138 3,000  Level Miami Center
08:41PM 26.1831 -80.4744 209° Southwest 120 138 3,000  Level Miami Center
08:42PM 26.1531 -80.4933 209° Southwest 120 138 3,000 -300 Level Miami Center
08:43PM 26.1181 -80.5144 208° Southwest 120 138 2,500 -540 Descending Miami Center
08:44PM 26.0858 -80.5328 207° Southwest 125 144 2,000 -300 Descending Miami Center
08:45PM 26.0553 -80.5500 207° Southwest 125 144 2,000  Level Miami Center
08:46PM 26.0186 -80.5719 208° Southwest 121 139 2,000  Level Miami Center
08:47PM 25.9950 -80.5831 203° Southwest 124 143 2,000  Level Miami Center
08:48PM 25.9603 -80.6019 206° Southwest 123 142 2,000  Level Miami Center
08:49PM 25.9278 -80.6178 204° Southwest 127 146 2,000  Level Miami Center
08:50PM 25.8967 -80.6131 172° South 122 140 2,000  Level Miami Center
08:51PM 25.8639 -80.5989 159° South 123 142 2,000  Level Miami Center
08:52PM 25.8369 -80.5831 152° Southeast 124 143 2,000  Level Miami Center
08:53PM 25.7992 -80.5636 155° Southeast 125 144 2,000  Level Miami Center
08:54PM 25.7686 -80.5497 158° South 121 139 2,000  Level Miami Center
08:55PM 25.7369 -80.5331 155° Southeast 123 142 2,000  Level Miami Center
08:56PM 25.7028 -80.5306 176° South 121 139 2,000  Level Miami Center
08:57PM 25.6833 -80.5597 234° Southwest 122 140 2,000  Level Miami Center
08:58PM 25.6656 -80.5878 235° Southwest 129 148 2,000 -180 Level Miami Center
08:59PM 25.6442 -80.5628 133° Southeast 128 147 1,700 -300 Descending Miami Center
09:00PM 25.6358 -80.5300 106° East 153 176 1,500 -240 Descending Miami Center
09:01PM 25.6419 -80.5025 76° East 91 105 1,300 -420 Descending Miami Center
09:02PM 25.6417 -80.4725 91° East 90 104 700 -540 Descending Miami Center
09:04PM 25.6357 -80.4322 99° East  Level FlightAware Approximate
09:11PM 25.6333 -80.4167 200° South  Level FlightAware Approximate